createdAt,value
2018-08-23T00:01:27.065Z,14.25
2018-08-23T00:03:58.441Z,15.37
2018-08-23T00:06:26.754Z,15.08
2018-08-23T00:08:57.432Z,15.25
2018-08-23T00:11:27.529Z,16.50
2018-08-23T00:13:55.893Z,15.65
2018-08-23T00:16:33.075Z,16.25
2018-08-23T00:19:02.399Z,16.45
2018-08-23T00:21:30.661Z,16.07
2018-08-23T00:24:07.138Z,16.20
2018-08-23T00:26:36.146Z,16.40
2018-08-23T00:29:06.104Z,17.82
2018-08-23T00:31:38.918Z,17.35
2018-08-23T00:34:07.554Z,17.52
2018-08-23T00:36:36.694Z,18.40
2018-08-23T00:39:06.603Z,18.98
2018-08-23T00:41:34.849Z,20.15
2018-08-23T00:44:03.113Z,20.60
2018-08-23T00:46:31.405Z,19.95
2018-08-23T00:48:59.674Z,20.52
2018-08-23T00:51:27.981Z,19.00
2018-08-23T00:54:01.495Z,21.37
2018-08-23T00:56:29.717Z,21.50
2018-08-23T00:59:00.602Z,22.55
2018-08-23T01:01:29.041Z,23.18
2018-08-23T01:03:57.341Z,22.20
2018-08-23T01:06:37.028Z,24.05
2018-08-23T01:09:07.280Z,24.82
2018-08-23T01:11:35.740Z,27.57
2018-08-23T01:14:04.040Z,27.00
2018-08-23T01:16:32.291Z,26.37
2018-08-23T01:19:05.834Z,27.13
2018-08-23T01:21:40.350Z,24.90
2018-08-23T01:24:08.613Z,25.80
2018-08-23T01:26:36.860Z,25.25
2018-08-23T01:29:15.080Z,25.80
2018-08-23T01:31:43.340Z,25.92
2018-08-23T01:34:11.681Z,25.10
2018-08-23T01:36:39.945Z,25.17
2018-08-23T01:39:10.681Z,25.60
2018-08-23T01:41:38.982Z,26.02
2018-08-23T01:44:07.301Z,26.95
2018-08-23T01:46:40.881Z,26.33
2018-08-23T01:49:09.146Z,27.20
2018-08-23T01:51:37.441Z,27.10
2018-08-23T01:54:05.720Z,27.42
2018-08-23T01:56:33.975Z,26.73
2018-08-23T01:59:02.256Z,26.93
2018-08-23T02:01:30.509Z,28.50
2018-08-23T02:03:58.753Z,29.70
2018-08-23T02:06:32.431Z,27.27
2018-08-23T02:09:00.682Z,26.93
2018-08-23T02:11:28.981Z,27.70
2018-08-23T02:13:57.266Z,26.60
2018-08-23T02:16:25.566Z,25.45
2018-08-23T02:18:53.817Z,25.47
2018-08-23T02:21:22.117Z,26.75
2018-08-23T02:23:52.420Z,27.15
2018-08-23T02:26:20.696Z,28.23
2018-08-23T02:28:50.604Z,25.50
2018-08-23T02:31:18.884Z,26.97
2018-08-23T02:33:47.208Z,26.13
2018-08-23T02:36:16.451Z,26.12
2018-08-23T02:38:45.961Z,26.10
2018-08-23T02:41:14.426Z,25.43
2018-08-23T02:43:43.000Z,24.98
2018-08-23T02:46:11.260Z,23.70
2018-08-23T02:48:39.511Z,24.15
2018-08-23T02:51:07.819Z,23.67
2018-08-23T02:53:37.979Z,21.67
2018-08-23T02:56:09.966Z,21.37
2018-08-23T02:58:57.448Z,21.57
2018-08-23T03:01:27.298Z,21.65
2018-08-23T03:04:06.836Z,22.93
2018-08-23T03:06:55.523Z,19.75
2018-08-23T03:09:39.900Z,21.40
2018-08-23T03:12:22.825Z,21.53
2018-08-23T03:14:51.069Z,22.00
2018-08-23T03:17:22.862Z,21.90
2018-08-23T03:20:11.962Z,22.55
2018-08-23T03:22:40.654Z,22.27
2018-08-23T03:25:10.361Z,23.55
2018-08-23T03:27:38.627Z,27.10
2018-08-23T03:30:08.979Z,27.75
2018-08-23T03:32:37.273Z,28.20
2018-08-23T03:35:05.661Z,31.15
2018-08-23T03:37:33.948Z,34.92
2018-08-23T03:40:02.204Z,34.23
2018-08-23T03:42:30.514Z,35.50
2018-08-23T03:44:59.488Z,34.23
2018-08-23T03:47:30.996Z,36.63
2018-08-23T03:50:00.756Z,39.78
2018-08-23T03:52:34.335Z,38.38
2018-08-23T03:55:02.560Z,39.13
2018-08-23T03:57:36.188Z,42.17
2018-08-23T04:00:04.427Z,40.85
2018-08-23T04:02:32.717Z,42.40
2018-08-23T04:05:19.496Z,40.05
2018-08-23T04:07:47.831Z,37.03
2018-08-23T04:10:16.060Z,39.05
2018-08-23T04:12:44.908Z,39.92
2018-08-23T04:15:25.429Z,39.80
2018-08-23T04:17:53.666Z,39.60
2018-08-23T04:20:21.904Z,38.78
2018-08-23T04:22:50.276Z,37.70
2018-08-23T04:25:18.493Z,40.03
2018-08-23T04:27:46.776Z,39.92
2018-08-23T04:30:15.562Z,42.58
2018-08-23T04:32:49.513Z,42.55
2018-08-23T04:35:23.261Z,40.17
2018-08-23T04:37:52.163Z,38.10
2018-08-23T04:40:20.400Z,37.00
2018-08-23T04:42:48.661Z,37.13
2018-08-23T04:45:22.177Z,36.93
2018-08-23T04:47:55.632Z,36.55
2018-08-23T04:50:25.188Z,39.58
2018-08-23T04:52:53.423Z,38.58
2018-08-23T04:55:21.721Z,39.73
2018-08-23T04:57:49.946Z,39.67
2018-08-23T05:00:18.215Z,37.65
2018-08-23T05:02:48.685Z,37.30
2018-08-23T05:05:16.960Z,38.30
2018-08-23T05:07:45.225Z,38.65
2018-08-23T05:10:13.699Z,38.67
2018-08-23T05:12:42.116Z,36.85
2018-08-23T05:15:10.390Z,37.55
2018-08-23T05:17:38.660Z,33.70
2018-08-23T05:20:07.094Z,31.60
2018-08-23T05:22:35.317Z,30.08
2018-08-23T05:25:12.620Z,27.52
2018-08-23T05:27:57.699Z,29.87
2018-08-23T05:30:26.997Z,27.55
2018-08-23T05:32:59.400Z,31.40
2018-08-23T05:35:28.213Z,32.47
2018-08-23T05:37:56.449Z,33.00
2018-08-23T05:40:24.708Z,35.40
2018-08-23T05:42:56.643Z,37.75
2018-08-23T05:45:35.886Z,35.03
2018-08-23T05:48:15.513Z,36.85
2018-08-23T05:50:43.964Z,37.55
2018-08-23T05:53:13.357Z,39.33
2018-08-23T05:55:41.614Z,40.25
2018-08-23T05:58:15.836Z,38.30
2018-08-23T06:00:44.212Z,41.08
2018-08-23T06:03:13.370Z,37.88
2018-08-23T06:05:41.654Z,40.58
2018-08-23T06:08:10.235Z,41.92
2018-08-23T06:10:38.512Z,42.65
2018-08-23T06:13:06.771Z,42.08
2018-08-23T06:15:39.210Z,42.95
2018-08-23T06:18:07.829Z,44.53
2018-08-23T06:20:36.076Z,48.08
2018-08-23T06:23:04.301Z,47.03
2018-08-23T06:25:32.558Z,45.85
2018-08-23T06:28:00.797Z,45.73
2018-08-23T06:30:29.044Z,44.80
2018-08-23T06:33:03.605Z,48.42
2018-08-23T06:35:36.052Z,51.75
2018-08-23T06:38:04.396Z,51.50
2018-08-23T06:40:32.672Z,54.35
2018-08-23T06:43:05.944Z,57.17
2018-08-23T06:45:34.258Z,56.98
2018-08-23T06:48:03.396Z,60.83
2018-08-23T06:50:31.685Z,59.55
2018-08-23T06:52:59.900Z,60.40
2018-08-23T06:55:35.543Z,62.17
2018-08-23T06:58:04.831Z,62.88
2018-08-23T07:00:33.533Z,59.15
2018-08-23T07:03:04.193Z,63.98
2018-08-23T07:05:32.574Z,60.92
2018-08-23T07:08:00.822Z,61.93
2018-08-23T07:10:29.156Z,59.23
2018-08-23T07:12:57.780Z,61.80
2018-08-23T07:15:26.158Z,62.63
2018-08-23T07:17:54.497Z,60.70
2018-08-23T07:20:22.797Z,60.50
2018-08-23T07:22:51.122Z,61.97
2018-08-23T07:25:19.975Z,60.63
2018-08-23T07:27:48.288Z,62.35
2018-08-23T07:30:20.308Z,60.57
2018-08-23T07:32:49.871Z,59.63
2018-08-23T07:35:19.402Z,58.08
2018-08-23T07:37:49.287Z,56.05
2018-08-23T07:40:18.496Z,56.73
2018-08-23T07:42:48.121Z,54.63
2018-08-23T07:45:16.987Z,53.60
2018-08-23T07:47:46.584Z,51.48
2018-08-23T07:50:14.985Z,53.40
2018-08-23T07:52:44.659Z,52.77
2018-08-23T07:55:13.205Z,53.13
2018-08-23T07:57:41.918Z,51.83
2018-08-23T08:00:38.224Z,51.33
2018-08-23T08:03:06.630Z,53.93
2018-08-23T08:05:38.273Z,52.43
2018-08-23T08:08:08.122Z,50.63
2018-08-23T08:10:42.876Z,49.83
2018-08-23T08:13:11.981Z,49.00
2018-08-23T08:15:40.256Z,50.50
2018-08-23T08:18:12.741Z,50.23
2018-08-23T08:20:41.435Z,48.73
2018-08-23T08:23:09.757Z,49.80
2018-08-23T08:25:38.008Z,49.30
2018-08-23T08:28:10.700Z,45.07
2018-08-23T08:30:44.302Z,45.20
2018-08-23T08:33:26.900Z,43.60
2018-08-23T08:35:59.834Z,41.80
2018-08-23T08:38:28.142Z,42.53
2018-08-23T08:40:56.424Z,42.30
2018-08-23T08:43:25.368Z,42.30
2018-08-23T08:45:55.653Z,42.13
2018-08-23T08:48:29.997Z,45.10
2018-08-23T08:51:14.901Z,44.93
2018-08-23T08:53:43.756Z,45.12
2018-08-23T08:56:12.012Z,46.75
2018-08-23T08:58:41.626Z,47.35
2018-08-23T09:01:09.872Z,45.52
2018-08-23T09:03:38.928Z,45.73
2018-08-23T09:06:08.588Z,46.20
2018-08-23T09:08:38.110Z,43.55
2018-08-23T09:11:06.633Z,42.32
2018-08-23T09:13:40.234Z,42.03
2018-08-23T09:16:10.797Z,46.67
2018-08-23T09:18:42.315Z,46.33
2018-08-23T09:21:11.386Z,50.75
2018-08-23T09:23:39.818Z,58.87
2018-08-23T09:26:08.143Z,61.43
2018-08-23T09:28:36.437Z,60.43
2018-08-23T09:31:04.710Z,62.77
2018-08-23T09:33:33.016Z,61.73
2018-08-23T09:36:01.312Z,60.50
2018-08-23T09:38:29.613Z,59.20
2018-08-23T09:40:57.882Z,57.45
2018-08-23T09:43:26.162Z,57.77
2018-08-23T09:45:54.425Z,55.10
2018-08-23T09:48:22.778Z,54.03
2018-08-23T09:50:51.205Z,53.58
2018-08-23T09:53:25.398Z,53.93
2018-08-23T09:55:55.199Z,53.25
2018-08-23T09:58:28.682Z,54.80
2018-08-23T10:01:02.270Z,50.92
2018-08-23T10:03:36.088Z,51.10
2018-08-23T10:06:09.585Z,52.58
2018-08-23T10:08:43.152Z,50.93
2018-08-23T10:11:20.999Z,52.07
2018-08-23T10:13:54.466Z,50.97
2018-08-23T10:16:27.919Z,50.63
2018-08-23T10:18:58.214Z,49.60
2018-08-23T10:21:31.855Z,44.48
2018-08-23T10:24:12.785Z,41.30
2018-08-23T10:26:41.149Z,46.60
2018-08-23T10:29:10.290Z,45.25
2018-08-23T10:31:38.576Z,47.60
2018-08-23T10:34:07.632Z,47.63
2018-08-23T10:36:36.085Z,45.28
2018-08-23T10:39:08.213Z,44.53
2018-08-23T10:41:36.585Z,38.87
2018-08-23T10:44:05.058Z,37.80
2018-08-23T10:46:38.749Z,42.70
2018-08-23T10:49:07.248Z,39.10
2018-08-23T10:51:35.793Z,36.53
2018-08-23T10:54:04.269Z,46.87
2018-08-23T10:56:32.913Z,45.50
2018-08-23T10:59:01.349Z,45.75
2018-08-23T11:01:30.103Z,45.40
2018-08-23T11:04:04.028Z,46.30
2018-08-23T11:06:32.451Z,45.37
2018-08-23T11:09:06.069Z,41.63
2018-08-23T11:11:36.130Z,42.53
2018-08-23T11:14:10.500Z,41.77
2018-08-23T11:16:44.811Z,42.30
2018-08-23T11:19:18.427Z,38.57
2018-08-23T11:21:46.893Z,37.30
2018-08-23T11:24:15.425Z,35.10
2018-08-23T11:26:43.969Z,35.30
2018-08-23T11:29:12.257Z,32.77
2018-08-23T11:31:40.565Z,33.30
2018-08-23T11:34:08.866Z,40.28
2018-08-23T11:36:37.268Z,40.80
2018-08-23T11:39:08.262Z,42.67
2018-08-23T11:41:36.985Z,37.65
2018-08-23T11:44:05.717Z,32.40
2018-08-23T11:46:34.390Z,32.40
2018-08-23T11:49:02.795Z,31.47
2018-08-23T11:51:31.260Z,27.95
2018-08-23T11:53:59.731Z,32.38
2018-08-23T11:56:28.296Z,30.87
2018-08-23T11:58:56.732Z,30.55
2018-08-23T12:01:25.018Z,25.68
2018-08-23T12:03:53.282Z,24.35
2018-08-23T12:06:21.597Z,24.90
2018-08-23T12:08:50.016Z,24.93
2018-08-23T12:11:18.560Z,24.32
2018-08-23T12:13:50.179Z,29.50
2018-08-23T12:16:18.696Z,31.57
2018-08-23T12:18:46.996Z,26.10
2018-08-23T12:21:15.507Z,29.13
2018-08-23T12:23:43.812Z,28.47
2018-08-23T12:26:12.769Z,22.95
2018-08-23T12:28:46.370Z,29.93
2018-08-23T12:31:14.961Z,27.45
2018-08-23T12:33:43.449Z,30.08
2018-08-23T12:36:12.702Z,31.90
2018-08-23T12:38:46.494Z,31.53
2018-08-23T12:41:20.372Z,30.60
2018-08-23T12:43:50.214Z,29.10
2018-08-23T12:46:18.626Z,25.93
2018-08-23T12:48:47.974Z,27.87
2018-08-23T12:51:16.385Z,23.67
2018-08-23T12:53:44.665Z,23.80
2018-08-23T12:56:13.469Z,24.00
2018-08-23T12:58:41.977Z,23.77
2018-08-23T13:01:10.520Z,19.37
2018-08-23T13:03:38.854Z,20.23
2018-08-23T13:06:07.615Z,21.20
2018-08-23T13:08:36.380Z,19.13
2018-08-23T13:11:04.986Z,17.02
2018-08-23T13:13:33.313Z,15.80
2018-08-23T13:16:01.655Z,14.07
2018-08-23T13:18:29.998Z,12.57
2018-08-23T13:20:58.534Z,14.05
2018-08-23T13:23:26.827Z,12.50
2018-08-23T13:25:55.770Z,12.90
2018-08-23T13:28:24.895Z,11.73
2018-08-23T13:30:53.526Z,11.60
2018-08-23T13:33:22.284Z,10.23
2018-08-23T13:35:50.586Z,11.38
2018-08-23T13:38:19.364Z,11.00
2018-08-23T13:40:48.521Z,10.53
2018-08-23T13:43:17.164Z,9.83
2018-08-23T13:45:45.803Z,10.38
2018-08-23T13:48:14.379Z,9.60
2018-08-23T13:50:42.913Z,11.40
2018-08-23T13:53:11.193Z,9.80
2018-08-23T13:55:39.705Z,10.70
2018-08-23T13:58:08.245Z,10.60
2018-08-23T14:00:40.640Z,10.50
2018-08-23T14:03:09.881Z,11.93
2018-08-23T14:05:39.972Z,11.60
2018-08-23T14:08:08.951Z,9.90
2018-08-23T14:10:37.515Z,11.07
2018-08-23T14:13:06.304Z,11.80
2018-08-23T14:15:40.235Z,10.54
2018-08-23T14:18:08.796Z,10.82
2018-08-23T14:20:37.348Z,10.27
2018-08-23T14:23:06.545Z,10.45
2018-08-23T14:25:35.217Z,10.80
2018-08-23T14:28:03.890Z,11.53
2018-08-23T14:30:32.376Z,11.67
2018-08-23T14:33:01.054Z,11.70
2018-08-23T14:35:29.281Z,10.95
2018-08-23T14:37:57.609Z,11.75
2018-08-23T14:40:25.856Z,11.60
2018-08-23T14:42:55.065Z,11.97
2018-08-23T14:45:28.581Z,12.45
2018-08-23T14:48:02.309Z,14.60
2018-08-23T14:50:31.622Z,13.32
2018-08-23T14:52:59.917Z,12.05
2018-08-23T14:55:33.786Z,12.40
2018-08-23T14:58:02.036Z,12.40
2018-08-23T15:00:30.509Z,11.53
2018-08-23T15:02:58.788Z,10.90
2018-08-23T15:05:27.024Z,11.40
2018-08-23T15:07:55.289Z,10.80
2018-08-23T15:10:23.535Z,11.20
2018-08-23T15:12:51.805Z,12.60
2018-08-23T15:15:24.196Z,11.20
2018-08-23T15:17:52.568Z,11.63
2018-08-23T15:20:20.821Z,11.90
2018-08-23T15:22:49.065Z,12.95
2018-08-23T15:25:17.281Z,12.73
2018-08-23T15:27:45.517Z,12.50
2018-08-23T15:30:13.782Z,12.70
2018-08-23T15:32:42.009Z,13.20
2018-08-23T15:35:10.273Z,12.50
2018-08-23T15:37:38.516Z,12.50
2018-08-23T15:40:06.764Z,12.78
2018-08-23T15:42:34.995Z,12.23
2018-08-23T15:45:03.351Z,12.23
2018-08-23T15:47:31.544Z,12.75
2018-08-23T15:49:59.856Z,12.00
2018-08-23T15:52:30.224Z,12.00
2018-08-23T15:54:58.480Z,12.00
2018-08-23T15:57:26.728Z,11.43
2018-08-23T15:59:54.968Z,11.33
2018-08-23T16:02:23.184Z,10.13
2018-08-23T16:04:51.432Z,11.55
2018-08-23T16:07:19.718Z,11.60
2018-08-23T16:09:47.966Z,10.98
2018-08-23T16:12:16.212Z,10.60
2018-08-23T16:14:44.513Z,9.63
2018-08-23T16:17:17.972Z,9.60
2018-08-23T16:19:51.536Z,10.43
2018-08-23T16:22:19.815Z,10.03
2018-08-23T16:24:48.137Z,10.50
2018-08-23T16:27:16.316Z,9.48
2018-08-23T16:29:50.442Z,9.58
2018-08-23T16:32:24.181Z,9.08
2018-08-23T16:34:52.536Z,8.90
2018-08-23T16:37:20.742Z,8.75
2018-08-23T16:39:48.978Z,8.25
2018-08-23T16:42:17.209Z,7.90
2018-08-23T16:44:45.457Z,7.70
2018-08-23T16:47:13.745Z,7.27
2018-08-23T16:49:42.072Z,7.40
2018-08-23T16:52:10.408Z,7.80
2018-08-23T16:54:38.724Z,7.85
2018-08-23T16:57:07.044Z,7.57
2018-08-23T16:59:35.341Z,6.73
2018-08-23T17:02:03.733Z,6.90
2018-08-23T17:04:37.396Z,6.60
2018-08-23T17:07:05.752Z,6.60
2018-08-23T17:09:34.051Z,6.90
2018-08-23T17:12:02.369Z,6.80
2018-08-23T17:14:30.651Z,6.87
2018-08-23T17:17:04.219Z,6.72
2018-08-23T17:19:32.541Z,7.03
2018-08-23T17:22:00.840Z,7.00
2018-08-23T17:24:29.193Z,7.20
2018-08-23T17:26:57.484Z,7.40
2018-08-23T17:29:25.717Z,6.82
2018-08-23T17:31:53.924Z,6.90
2018-08-23T17:34:22.275Z,6.80
2018-08-23T17:36:50.508Z,7.10
2018-08-23T17:39:18.754Z,6.47
2018-08-23T17:41:46.992Z,7.20
2018-08-23T17:44:15.276Z,6.90
2018-08-23T17:46:43.522Z,6.65
2018-08-23T17:49:11.894Z,6.70
2018-08-23T17:51:40.812Z,7.00
2018-08-23T17:54:09.069Z,7.00
2018-08-23T17:56:37.288Z,7.00
2018-08-23T17:59:05.633Z,8.83
2018-08-23T18:01:33.865Z,11.30
2018-08-23T18:04:02.364Z,8.80
2018-08-23T18:06:30.623Z,7.90
2018-08-23T18:08:58.953Z,7.53
2018-08-23T18:11:27.821Z,7.90
2018-08-23T18:13:56.085Z,7.50
2018-08-23T18:16:30.041Z,7.50
2018-08-23T18:18:58.309Z,7.20
2018-08-23T18:21:26.545Z,7.90
2018-08-23T18:23:54.832Z,8.20
2018-08-23T18:26:23.902Z,7.50
2018-08-23T18:28:52.313Z,7.70
2018-08-23T18:31:21.057Z,7.43
2018-08-23T18:33:49.451Z,8.20
2018-08-23T18:36:17.996Z,8.48
2018-08-23T18:38:46.781Z,8.40
2018-08-23T18:41:15.113Z,7.80
2018-08-23T18:43:43.422Z,7.90
2018-08-23T18:46:11.853Z,7.60
2018-08-23T18:48:40.100Z,8.88
2018-08-23T18:51:08.408Z,10.40
2018-08-23T18:53:36.727Z,12.87
2018-08-23T18:56:05.204Z,15.30
2018-08-23T18:58:33.599Z,14.90
2018-08-23T19:01:02.098Z,16.35
2018-08-23T19:03:30.618Z,17.10
2018-08-23T19:05:58.884Z,18.50
2018-08-23T19:08:27.807Z,16.60
2018-08-23T19:10:56.080Z,16.32
2018-08-23T19:13:24.457Z,18.73
2018-08-23T19:15:58.323Z,18.70
2018-08-23T19:18:26.565Z,18.00
2018-08-23T19:20:54.924Z,18.05
2018-08-23T19:23:23.299Z,18.00
2018-08-23T19:25:51.657Z,17.23
2018-08-23T19:28:20.489Z,17.70
2018-08-23T19:30:48.820Z,18.63
2018-08-23T19:33:17.413Z,18.12
2018-08-23T19:35:46.587Z,16.53
2018-08-23T19:38:15.928Z,15.98
2018-08-23T19:40:44.493Z,17.33
2018-08-23T19:43:14.140Z,15.83
2018-08-23T19:45:47.841Z,16.62
2018-08-23T19:48:16.768Z,16.35
2018-08-23T19:50:45.097Z,16.20
2018-08-23T19:53:14.680Z,15.33
2018-08-23T19:55:43.076Z,17.10
2018-08-23T19:58:12.289Z,16.60
2018-08-23T20:00:40.743Z,15.83
2018-08-23T20:03:09.017Z,16.77
2018-08-23T20:05:37.910Z,16.93
2018-08-23T20:08:06.359Z,16.57
2018-08-23T20:10:34.634Z,16.73
2018-08-23T20:13:02.964Z,17.87
2018-08-23T20:15:31.698Z,15.93
2018-08-23T20:18:00.153Z,17.45
2018-08-23T20:20:28.804Z,16.85
2018-08-23T20:22:57.236Z,17.23
2018-08-23T20:25:26.868Z,17.27
2018-08-23T20:27:55.453Z,16.73
2018-08-23T20:30:23.766Z,16.32
2018-08-23T20:32:52.149Z,17.80
2018-08-23T20:35:20.432Z,17.15
2018-08-23T20:37:48.745Z,18.40
2018-08-23T20:40:16.997Z,17.00
2018-08-23T20:42:46.273Z,17.00
2018-08-23T20:45:14.668Z,16.77
2018-08-23T20:47:43.171Z,16.87
2018-08-23T20:50:11.935Z,16.48
2018-08-23T20:52:40.433Z,17.90
2018-08-23T20:55:08.965Z,17.20
2018-08-23T20:57:37.409Z,16.82
2018-08-23T21:00:06.890Z,16.73
2018-08-23T21:02:35.157Z,18.10
2018-08-23T21:05:03.693Z,18.10
2018-08-23T21:07:32.010Z,17.53
2018-08-23T21:10:00.393Z,17.87
2018-08-23T21:12:28.581Z,17.93
2018-08-23T21:14:57.172Z,18.70
2018-08-23T21:17:25.481Z,19.10
2018-08-23T21:19:54.037Z,19.92
2018-08-23T21:22:22.492Z,19.67
2018-08-23T21:24:50.772Z,19.53
2018-08-23T21:27:19.318Z,20.68
2018-08-23T21:29:48.014Z,21.10
2018-08-23T21:32:16.293Z,20.10
2018-08-23T21:34:44.549Z,19.63
2018-08-23T21:37:12.830Z,19.50
2018-08-23T21:39:41.105Z,19.40
2018-08-23T21:42:09.423Z,18.20
2018-08-23T21:44:37.700Z,16.62
2018-08-23T21:47:07.105Z,16.60
2018-08-23T21:49:35.429Z,16.12
2018-08-23T21:52:03.706Z,15.78
2018-08-23T21:54:31.998Z,15.98
2018-08-23T21:57:00.269Z,15.23
2018-08-23T21:59:28.537Z,15.80
2018-08-23T22:02:01.995Z,15.23
2018-08-23T22:04:30.270Z,16.10
2018-08-23T22:06:58.537Z,15.48
2018-08-23T22:09:26.810Z,13.93
2018-08-23T22:11:55.062Z,15.40
2018-08-23T22:14:23.326Z,14.78
2018-08-23T22:16:51.579Z,15.70
2018-08-23T22:19:34.035Z,16.02
2018-08-23T22:22:02.277Z,13.30
2018-08-23T22:24:30.534Z,14.00
2018-08-23T22:26:58.859Z,14.47
2018-08-23T22:29:27.041Z,14.70
2018-08-23T22:31:55.276Z,14.83
2018-08-23T22:34:23.517Z,15.40
2018-08-23T22:36:51.804Z,15.95
2018-08-23T22:39:20.066Z,15.30
2018-08-23T22:41:48.320Z,15.68
2018-08-23T22:44:16.724Z,15.35
2018-08-23T22:46:45.709Z,15.72
2018-08-23T22:49:13.952Z,16.17
2018-08-23T22:51:42.221Z,16.20
2018-08-23T22:54:10.508Z,16.82
2018-08-23T22:56:38.781Z,15.70
2018-08-23T22:59:07.053Z,15.90
2018-08-23T23:01:35.288Z,16.70
2018-08-23T23:04:08.933Z,15.63
2018-08-23T23:06:37.226Z,15.80
2018-08-23T23:09:09.850Z,16.02
2018-08-23T23:11:38.284Z,15.40
2018-08-23T23:14:06.651Z,15.68
2018-08-23T23:16:34.934Z,15.50
2018-08-23T23:19:04.485Z,16.05
2018-08-23T23:21:32.815Z,15.68
2018-08-23T23:24:01.559Z,15.38
2018-08-23T23:26:29.951Z,16.00
2018-08-23T23:28:58.281Z,15.32
2018-08-23T23:31:26.535Z,15.50
2018-08-23T23:33:54.825Z,14.90
2018-08-23T23:36:23.093Z,15.50
2018-08-23T23:38:51.385Z,14.47
2018-08-23T23:41:19.641Z,15.33
2018-08-23T23:43:47.937Z,16.23
2018-08-23T23:46:16.205Z,14.50
2018-08-23T23:48:44.523Z,15.25
2018-08-23T23:51:12.803Z,14.80
2018-08-23T23:53:41.111Z,15.20
2018-08-23T23:56:09.363Z,15.43
2018-08-23T23:58:37.670Z,15.48
